Norfolk Ns (Chambers Fld) Airport Norfolk US
ICAO: KNGU
IATA: NGU
Category: Medium
Scheduled Services: No

Elevation: 17 ft
TransAlt. 18000 ft.

Airport Communications:
APP:118.9
ATIS:118.425
CLNC DEL:120.7
DEP:125.2
NAVYNORFOLK HELI GND:29.895
CHAMBERS GND:121.8
AMC/ATOC:130.65
NAVYNORFOLK HELI TWR:126.375
BASE OPS:126.375
METRO:27.16
CHAMBERS TWR:124.3

KNGU Zoom In..

Runways:

(A) RW 10 length 8371 ft width 200 ft
ILS 108.95 / hdg 100

(B) RW 28 length 8371 ft width 200 ft
---- / hdg 280

Location; KNGU
Day. 23 / Time. 02.59 Zulu
* Altimeter: 29.89
* Temperature: 26° c. 78.8°f.
* Wind from: 200° Speed 09 kn with Gusts up to 15 kn.
Dewpoint: 22° c.
Visibility: 10 Statute Miles.
Clouds: Few 1800 ft.
Clouds: Scattered 4900 ft.
Clouds: Overcast 17000 ft.

KNGU 230259Z 20009G15KT 10SM FEW018 SCT049 OVC170 26/22 A2989 RMK AO2 SLP122 T1 SET 60002 T02560217 53017


Wind From 200°
Speed 09 kn.

 
 
jpsmedia.com for Web Design worldairports.se 2018   terms of use